sensor_id;sensor_type;location;lat;lon;timestamp;P1;durP1;ratioP1;P2;durP2;ratioP2
65230;SDS011;51813;40.666;16.602;2023-04-08T00:00:23;6.05;;;4.25;;
65230;SDS011;51813;40.666;16.602;2023-04-08T00:02:48;5.00;;;3.85;;
65230;SDS011;51813;40.666;16.602;2023-04-08T00:05:14;4.55;;;3.72;;
65230;SDS011;51813;40.666;16.602;2023-04-08T00:07:40;6.22;;;4.10;;
65230;SDS011;51813;40.666;16.602;2023-04-08T00:10:06;4.97;;;3.78;;
65230;SDS011;51813;40.666;16.602;2023-04-08T00:12:32;6.30;;;4.53;;
65230;SDS011;51813;40.666;16.602;2023-04-08T00:14:58;4.65;;;3.72;;
65230;SDS011;51813;40.666;16.602;2023-04-08T00:17:23;4.90;;;4.00;;
65230;SDS011;51813;40.666;16.602;2023-04-08T00:19:50;5.55;;;3.85;;
65230;SDS011;51813;40.666;16.602;2023-04-08T00:22:15;6.47;;;4.13;;
65230;SDS011;51813;40.666;16.602;2023-04-08T00:24:41;6.80;;;4.07;;
65230;SDS011;51813;40.666;16.602;2023-04-08T00:27:07;6.22;;;4.07;;
65230;SDS011;51813;40.666;16.602;2023-04-08T00:29:33;5.60;;;4.05;;
65230;SDS011;51813;40.666;16.602;2023-04-08T00:31:59;5.78;;;3.92;;
65230;SDS011;51813;40.666;16.602;2023-04-08T00:34:24;5.45;;;3.90;;
65230;SDS011;51813;40.666;16.602;2023-04-08T00:36:51;5.47;;;4.00;;
65230;SDS011;51813;40.666;16.602;2023-04-08T00:39:16;5.63;;;3.80;;
65230;SDS011;51813;40.666;16.602;2023-04-08T00:41:42;4.78;;;3.80;;
65230;SDS011;51813;40.666;16.602;2023-04-08T00:44:08;6.25;;;4.03;;
65230;SDS011;51813;40.666;16.602;2023-04-08T00:46:34;5.07;;;3.88;;
65230;SDS011;51813;40.666;16.602;2023-04-08T00:49:02;4.70;;;3.80;;
65230;SDS011;51813;40.666;16.602;2023-04-08T00:51:28;5.47;;;3.50;;
65230;SDS011;51813;40.666;16.602;2023-04-08T00:53:55;3.85;;;3.20;;
65230;SDS011;51813;40.666;16.602;2023-04-08T00:56:21;5.82;;;3.63;;
65230;SDS011;51813;40.666;16.602;2023-04-08T00:58:48;4.15;;;3.47;;
65230;SDS011;51813;40.666;16.602;2023-04-08T01:07:24;4.90;;;3.50;;
65230;SDS011;51813;40.666;16.602;2023-04-08T01:09:56;4.45;;;3.40;;
65230;SDS011;51813;40.666;16.602;2023-04-08T01:12:30;4.97;;;3.83;;
65230;SDS011;51813;40.666;16.602;2023-04-08T01:15:04;3.90;;;3.33;;
65230;SDS011;51813;40.666;16.602;2023-04-08T01:17:31;4.57;;;3.50;;
65230;SDS011;51813;40.666;16.602;2023-04-08T01:20:00;5.80;;;3.67;;
65230;SDS011;51813;40.666;16.602;2023-04-08T01:25:02;5.63;;;3.90;;
65230;SDS011;51813;40.666;16.602;2023-04-08T01:27:32;4.25;;;3.38;;
65230;SDS011;51813;40.666;16.602;2023-04-08T01:30:01;5.22;;;3.53;;
65230;SDS011;51813;40.666;16.602;2023-04-08T01:32:28;5.22;;;3.22;;
65230;SDS011;51813;40.666;16.602;2023-04-08T01:34:56;5.07;;;3.28;;
65230;SDS011;51813;40.666;16.602;2023-04-08T01:37:23;4.75;;;3.30;;
65230;SDS011;51813;40.666;16.602;2023-04-08T01:39:52;4.63;;;3.15;;
65230;SDS011;51813;40.666;16.602;2023-04-08T01:42:19;4.55;;;3.35;;
65230;SDS011;51813;40.666;16.602;2023-04-08T01:44:54;4.30;;;3.30;;
65230;SDS011;51813;40.666;16.602;2023-04-08T01:47:21;4.68;;;3.47;;
65230;SDS011;51813;40.666;16.602;2023-04-08T01:49:49;3.97;;;3.22;;
65230;SDS011;51813;40.666;16.602;2023-04-08T01:52:17;4.68;;;3.25;;
65230;SDS011;51813;40.666;16.602;2023-04-08T01:54:45;4.47;;;3.03;;
65230;SDS011;51813;40.666;16.602;2023-04-08T01:57:13;3.83;;;3.00;;
65230;SDS011;51813;40.666;16.602;2023-04-08T01:59:41;5.73;;;3.13;;
65230;SDS011;51813;40.666;16.602;2023-04-08T02:02:09;5.35;;;3.10;;
65230;SDS011;51813;40.666;16.602;2023-04-08T02:04:36;4.82;;;3.33;;
65230;SDS011;51813;40.666;16.602;2023-04-08T02:07:02;4.75;;;3.00;;
65230;SDS011;51813;40.666;16.602;2023-04-08T02:09:30;4.63;;;3.33;;
65230;SDS011;51813;40.666;16.602;2023-04-08T02:11:55;4.53;;;3.28;;
65230;SDS011;51813;40.666;16.602;2023-04-08T02:14:21;4.90;;;3.25;;
65230;SDS011;51813;40.666;16.602;2023-04-08T02:17:22;5.25;;;3.00;;
65230;SDS011;51813;40.666;16.602;2023-04-08T02:20:02;4.45;;;3.08;;
65230;SDS011;51813;40.666;16.602;2023-04-08T02:25:00;4.38;;;3.30;;
65230;SDS011;51813;40.666;16.602;2023-04-08T02:27:28;4.90;;;3.50;;
65230;SDS011;51813;40.666;16.602;2023-04-08T02:29:55;4.15;;;3.17;;
65230;SDS011;51813;40.666;16.602;2023-04-08T02:32:22;4.72;;;3.22;;
65230;SDS011;51813;40.666;16.602;2023-04-08T02:34:49;4.57;;;3.50;;
65230;SDS011;51813;40.666;16.602;2023-04-08T02:37:15;4.60;;;3.08;;
65230;SDS011;51813;40.666;16.602;2023-04-08T02:39:41;4.72;;;3.30;;
65230;SDS011;51813;40.666;16.602;2023-04-08T02:42:07;6.30;;;3.70;;
65230;SDS011;51813;40.666;16.602;2023-04-08T02:44:32;5.13;;;3.70;;
65230;SDS011;51813;40.666;16.602;2023-04-08T02:46:58;8.63;;;3.75;;
65230;SDS011;51813;40.666;16.602;2023-04-08T02:49:24;5.15;;;3.55;;
65230;SDS011;51813;40.666;16.602;2023-04-08T02:51:50;4.68;;;3.15;;
65230;SDS011;51813;40.666;16.602;2023-04-08T02:54:15;5.00;;;3.58;;
65230;SDS011;51813;40.666;16.602;2023-04-08T02:56:41;5.28;;;3.53;;
65230;SDS011;51813;40.666;16.602;2023-04-08T02:59:07;4.53;;;3.22;;
65230;SDS011;51813;40.666;16.602;2023-04-08T03:01:32;5.63;;;3.67;;
65230;SDS011;51813;40.666;16.602;2023-04-08T03:03:58;4.55;;;3.45;;
65230;SDS011;51813;40.666;16.602;2023-04-08T03:06:24;4.57;;;3.50;;
65230;SDS011;51813;40.666;16.602;2023-04-08T03:08:49;4.47;;;3.22;;
65230;SDS011;51813;40.666;16.602;2023-04-08T03:11:15;4.97;;;3.85;;
65230;SDS011;51813;40.666;16.602;2023-04-08T03:13:41;5.78;;;3.65;;
65230;SDS011;51813;40.666;16.602;2023-04-08T03:16:06;5.47;;;3.38;;
65230;SDS011;51813;40.666;16.602;2023-04-08T03:18:32;5.72;;;3.47;;
65230;SDS011;51813;40.666;16.602;2023-04-08T03:20:58;4.55;;;3.40;;
65230;SDS011;51813;40.666;16.602;2023-04-08T03:23:24;4.30;;;3.28;;
65230;SDS011;51813;40.666;16.602;2023-04-08T03:25:49;4.60;;;3.35;;
65230;SDS011;51813;40.666;16.602;2023-04-08T03:28:15;5.00;;;3.42;;
65230;SDS011;51813;40.666;16.602;2023-04-08T03:30:41;5.03;;;3.58;;
65230;SDS011;51813;40.666;16.602;2023-04-08T03:33:06;4.75;;;3.75;;
65230;SDS011;51813;40.666;16.602;2023-04-08T03:35:32;5.43;;;3.70;;
65230;SDS011;51813;40.666;16.602;2023-04-08T03:37:58;5.03;;;3.45;;
65230;SDS011;51813;40.666;16.602;2023-04-08T03:40:24;4.88;;;3.45;;
65230;SDS011;51813;40.666;16.602;2023-04-08T03:42:50;4.72;;;3.63;;
65230;SDS011;51813;40.666;16.602;2023-04-08T03:45:15;4.90;;;3.50;;
65230;SDS011;51813;40.666;16.602;2023-04-08T03:47:41;5.82;;;3.63;;
65230;SDS011;51813;40.666;16.602;2023-04-08T03:50:07;5.40;;;3.78;;
65230;SDS011;51813;40.666;16.602;2023-04-08T03:52:33;4.80;;;3.42;;
65230;SDS011;51813;40.666;16.602;2023-04-08T03:54:58;4.50;;;3.38;;
65230;SDS011;51813;40.666;16.602;2023-04-08T03:57:24;5.47;;;3.42;;
65230;SDS011;51813;40.666;16.602;2023-04-08T03:59:50;4.88;;;3.60;;
65230;SDS011;51813;40.666;16.602;2023-04-08T04:02:15;5.03;;;3.78;;
65230;SDS011;51813;40.666;16.602;2023-04-08T04:04:41;5.40;;;3.47;;
65230;SDS011;51813;40.666;16.602;2023-04-08T04:07:07;4.65;;;3.40;;
65230;SDS011;51813;40.666;16.602;2023-04-08T04:09:32;6.25;;;3.90;;
65230;SDS011;51813;40.666;16.602;2023-04-08T04:11:58;4.85;;;3.67;;
65230;SDS011;51813;40.666;16.602;2023-04-08T04:14:24;5.20;;;3.85;;
65230;SDS011;51813;40.666;16.602;2023-04-08T04:16:49;5.97;;;3.65;;
65230;SDS011;51813;40.666;16.602;2023-04-08T04:19:15;5.40;;;3.45;;
65230;SDS011;51813;40.666;16.602;2023-04-08T04:21:42;6.50;;;4.03;;
65230;SDS011;51813;40.666;16.602;2023-04-08T04:24:08;5.00;;;3.60;;
65230;SDS011;51813;40.666;16.602;2023-04-08T04:26:34;4.88;;;3.70;;
65230;SDS011;51813;40.666;16.602;2023-04-08T04:28:59;6.50;;;4.43;;
65230;SDS011;51813;40.666;16.602;2023-04-08T04:31:25;6.13;;;4.03;;
65230;SDS011;51813;40.666;16.602;2023-04-08T04:33:51;6.53;;;4.07;;
65230;SDS011;51813;40.666;16.602;2023-04-08T04:36:16;6.18;;;4.50;;
65230;SDS011;51813;40.666;16.602;2023-04-08T04:38:42;7.70;;;4.30;;
65230;SDS011;51813;40.666;16.602;2023-04-08T04:41:08;6.60;;;4.60;;
65230;SDS011;51813;40.666;16.602;2023-04-08T04:43:34;6.90;;;3.95;;
65230;SDS011;51813;40.666;16.602;2023-04-08T04:46:00;7.13;;;4.00;;
65230;SDS011;51813;40.666;16.602;2023-04-08T04:48:27;6.50;;;4.25;;
65230;SDS011;51813;40.666;16.602;2023-04-08T04:50:56;6.97;;;4.43;;
65230;SDS011;51813;40.666;16.602;2023-04-08T04:53:23;6.05;;;4.15;;
65230;SDS011;51813;40.666;16.602;2023-04-08T04:55:49;6.50;;;4.20;;
65230;SDS011;51813;40.666;16.602;2023-04-08T04:58:15;6.90;;;3.90;;
65230;SDS011;51813;40.666;16.602;2023-04-08T05:00:41;4.85;;;3.47;;
65230;SDS011;51813;40.666;16.602;2023-04-08T05:03:07;5.93;;;3.75;;
65230;SDS011;51813;40.666;16.602;2023-04-08T05:05:32;4.80;;;3.30;;
65230;SDS011;51813;40.666;16.602;2023-04-08T05:07:58;7.28;;;3.72;;
65230;SDS011;51813;40.666;16.602;2023-04-08T05:10:23;5.40;;;3.60;;
65230;SDS011;51813;40.666;16.602;2023-04-08T05:12:49;6.68;;;3.67;;
65230;SDS011;51813;40.666;16.602;2023-04-08T05:15:15;4.72;;;3.55;;
65230;SDS011;51813;40.666;16.602;2023-04-08T05:17:40;5.47;;;3.80;;
65230;SDS011;51813;40.666;16.602;2023-04-08T05:20:06;5.57;;;3.80;;
65230;SDS011;51813;40.666;16.602;2023-04-08T05:22:32;5.93;;;3.78;;
65230;SDS011;51813;40.666;16.602;2023-04-08T05:24:58;7.15;;;3.85;;
65230;SDS011;51813;40.666;16.602;2023-04-08T05:27:24;6.72;;;3.70;;
65230;SDS011;51813;40.666;16.602;2023-04-08T05:29:50;5.65;;;3.75;;
65230;SDS011;51813;40.666;16.602;2023-04-08T05:32:15;6.47;;;3.75;;
65230;SDS011;51813;40.666;16.602;2023-04-08T05:34:41;5.93;;;3.70;;
65230;SDS011;51813;40.666;16.602;2023-04-08T05:37:07;4.38;;;3.55;;
65230;SDS011;51813;40.666;16.602;2023-04-08T05:39:33;5.18;;;3.25;;
65230;SDS011;51813;40.666;16.602;2023-04-08T05:41:59;4.13;;;3.20;;
65230;SDS011;51813;40.666;16.602;2023-04-08T05:44:24;5.20;;;3.10;;
65230;SDS011;51813;40.666;16.602;2023-04-08T05:46:50;5.57;;;3.30;;
65230;SDS011;51813;40.666;16.602;2023-04-08T05:49:16;6.80;;;3.35;;
65230;SDS011;51813;40.666;16.602;2023-04-08T05:51:41;5.40;;;3.40;;
65230;SDS011;51813;40.666;16.602;2023-04-08T05:54:07;5.30;;;3.15;;
65230;SDS011;51813;40.666;16.602;2023-04-08T05:56:33;5.50;;;3.15;;
65230;SDS011;51813;40.666;16.602;2023-04-08T05:58:59;4.38;;;2.80;;
65230;SDS011;51813;40.666;16.602;2023-04-08T06:01:25;4.40;;;3.38;;
65230;SDS011;51813;40.666;16.602;2023-04-08T06:03:50;4.50;;;2.80;;
65230;SDS011;51813;40.666;16.602;2023-04-08T06:06:22;4.20;;;2.90;;
65230;SDS011;51813;40.666;16.602;2023-04-08T06:08:49;4.32;;;3.05;;
65230;SDS011;51813;40.666;16.602;2023-04-08T06:11:15;4.72;;;3.30;;
65230;SDS011;51813;40.666;16.602;2023-04-08T06:13:41;3.50;;;2.75;;
65230;SDS011;51813;40.666;16.602;2023-04-08T06:16:10;4.25;;;2.72;;
65230;SDS011;51813;40.666;16.602;2023-04-08T06:18:36;4.88;;;2.78;;
65230;SDS011;51813;40.666;16.602;2023-04-08T06:21:02;4.80;;;2.60;;
65230;SDS011;51813;40.666;16.602;2023-04-08T06:23:28;5.13;;;2.90;;
65230;SDS011;51813;40.666;16.602;2023-04-08T06:25:53;4.20;;;2.85;;
65230;SDS011;51813;40.666;16.602;2023-04-08T06:28:19;3.60;;;2.70;;
65230;SDS011;51813;40.666;16.602;2023-04-08T06:30:45;4.40;;;2.90;;
65230;SDS011;51813;40.666;16.602;2023-04-08T06:33:10;4.75;;;2.70;;
65230;SDS011;51813;40.666;16.602;2023-04-08T06:35:36;3.90;;;2.90;;
65230;SDS011;51813;40.666;16.602;2023-04-08T06:38:02;4.15;;;3.00;;
65230;SDS011;51813;40.666;16.602;2023-04-08T06:40:28;3.95;;;3.10;;
65230;SDS011;51813;40.666;16.602;2023-04-08T06:42:54;5.15;;;3.17;;
65230;SDS011;51813;40.666;16.602;2023-04-08T06:45:20;4.90;;;3.35;;
65230;SDS011;51813;40.666;16.602;2023-04-08T06:47:45;4.47;;;2.58;;
65230;SDS011;51813;40.666;16.602;2023-04-08T06:50:11;4.32;;;3.10;;
65230;SDS011;51813;40.666;16.602;2023-04-08T06:52:37;6.10;;;3.30;;
65230;SDS011;51813;40.666;16.602;2023-04-08T06:55:02;3.35;;;2.47;;
65230;SDS011;51813;40.666;16.602;2023-04-08T06:57:28;3.60;;;2.60;;
65230;SDS011;51813;40.666;16.602;2023-04-08T06:59:54;4.25;;;3.00;;
65230;SDS011;51813;40.666;16.602;2023-04-08T07:02:20;4.38;;;2.60;;
65230;SDS011;51813;40.666;16.602;2023-04-08T07:04:46;3.70;;;2.47;;
65230;SDS011;51813;40.666;16.602;2023-04-08T07:07:12;4.45;;;2.53;;
65230;SDS011;51813;40.666;16.602;2023-04-08T07:09:38;3.85;;;2.42;;
65230;SDS011;51813;40.666;16.602;2023-04-08T07:12:07;3.83;;;2.80;;
65230;SDS011;51813;40.666;16.602;2023-04-08T07:14:33;3.90;;;2.70;;
65230;SDS011;51813;40.666;16.602;2023-04-08T07:16:58;4.78;;;2.67;;
65230;SDS011;51813;40.666;16.602;2023-04-08T07:19:24;3.30;;;2.28;;
65230;SDS011;51813;40.666;16.602;2023-04-08T07:21:50;3.38;;;2.58;;
65230;SDS011;51813;40.666;16.602;2023-04-08T07:24:16;3.75;;;2.60;;
65230;SDS011;51813;40.666;16.602;2023-04-08T07:26:43;3.40;;;2.30;;
65230;SDS011;51813;40.666;16.602;2023-04-08T07:29:08;4.22;;;2.63;;
65230;SDS011;51813;40.666;16.602;2023-04-08T07:31:34;4.05;;;2.42;;
65230;SDS011;51813;40.666;16.602;2023-04-08T07:34:00;4.32;;;2.47;;
65230;SDS011;51813;40.666;16.602;2023-04-08T07:36:26;4.55;;;2.72;;
65230;SDS011;51813;40.666;16.602;2023-04-08T07:38:52;3.50;;;2.20;;
65230;SDS011;51813;40.666;16.602;2023-04-08T07:41:18;4.45;;;2.42;;
65230;SDS011;51813;40.666;16.602;2023-04-08T07:43:43;4.25;;;2.90;;
65230;SDS011;51813;40.666;16.602;2023-04-08T07:46:10;4.10;;;2.38;;
65230;SDS011;51813;40.666;16.602;2023-04-08T07:48:35;4.22;;;2.42;;
65230;SDS011;51813;40.666;16.602;2023-04-08T07:51:05;3.05;;;2.20;;
65230;SDS011;51813;40.666;16.602;2023-04-08T07:53:31;4.20;;;2.28;;
65230;SDS011;51813;40.666;16.602;2023-04-08T07:55:58;2.72;;;2.05;;
65230;SDS011;51813;40.666;16.602;2023-04-08T07:58:24;3.78;;;2.15;;
65230;SDS011;51813;40.666;16.602;2023-04-08T08:00:50;3.03;;;2.20;;
65230;SDS011;51813;40.666;16.602;2023-04-08T08:03:16;3.70;;;2.17;;
65230;SDS011;51813;40.666;16.602;2023-04-08T08:05:42;4.97;;;2.40;;
65230;SDS011;51813;40.666;16.602;2023-04-08T08:08:07;4.05;;;2.45;;
65230;SDS011;51813;40.666;16.602;2023-04-08T08:10:36;3.63;;;2.30;;
65230;SDS011;51813;40.666;16.602;2023-04-08T08:13:02;3.08;;;2.17;;
65230;SDS011;51813;40.666;16.602;2023-04-08T08:15:29;3.00;;;2.08;;
65230;SDS011;51813;40.666;16.602;2023-04-08T08:17:55;3.50;;;2.40;;
65230;SDS011;51813;40.666;16.602;2023-04-08T08:20:21;3.20;;;2.20;;
65230;SDS011;51813;40.666;16.602;2023-04-08T08:22:46;2.95;;;1.90;;
65230;SDS011;51813;40.666;16.602;2023-04-08T08:25:12;3.28;;;2.30;;
65230;SDS011;51813;40.666;16.602;2023-04-08T08:27:38;3.25;;;2.35;;
65230;SDS011;51813;40.666;16.602;2023-04-08T08:30:06;3.33;;;1.98;;
65230;SDS011;51813;40.666;16.602;2023-04-08T08:32:32;3.72;;;2.17;;
65230;SDS011;51813;40.666;16.602;2023-04-08T08:34:58;2.95;;;2.10;;
65230;SDS011;51813;40.666;16.602;2023-04-08T08:37:24;2.70;;;1.90;;
65230;SDS011;51813;40.666;16.602;2023-04-08T08:39:49;2.85;;;1.98;;
65230;SDS011;51813;40.666;16.602;2023-04-08T08:44:50;3.17;;;1.95;;
65230;SDS011;51813;40.666;16.602;2023-04-08T08:47:16;3.67;;;2.13;;
65230;SDS011;51813;40.666;16.602;2023-04-08T08:49:42;2.58;;;1.90;;
65230;SDS011;51813;40.666;16.602;2023-04-08T08:52:08;3.60;;;2.20;;
65230;SDS011;51813;40.666;16.602;2023-04-08T08:54:34;2.83;;;1.95;;
65230;SDS011;51813;40.666;16.602;2023-04-08T08:57:00;3.17;;;2.03;;
65230;SDS011;51813;40.666;16.602;2023-04-08T08:59:25;3.70;;;2.10;;
65230;SDS011;51813;40.666;16.602;2023-04-08T09:01:51;3.63;;;2.22;;
65230;SDS011;51813;40.666;16.602;2023-04-08T09:04:20;2.83;;;1.85;;
65230;SDS011;51813;40.666;16.602;2023-04-08T09:06:47;3.00;;;1.90;;
65230;SDS011;51813;40.666;16.602;2023-04-08T09:09:15;3.00;;;2.10;;
65230;SDS011;51813;40.666;16.602;2023-04-08T09:11:42;2.60;;;1.85;;
65230;SDS011;51813;40.666;16.602;2023-04-08T09:14:21;3.40;;;1.83;;
65230;SDS011;51813;40.666;16.602;2023-04-08T09:16:48;3.00;;;2.10;;
65230;SDS011;51813;40.666;16.602;2023-04-08T09:19:15;3.38;;;2.30;;
65230;SDS011;51813;40.666;16.602;2023-04-08T09:21:41;3.33;;;2.15;;
65230;SDS011;51813;40.666;16.602;2023-04-08T09:24:07;3.95;;;2.00;;
65230;SDS011;51813;40.666;16.602;2023-04-08T09:26:33;3.58;;;2.25;;
65230;SDS011;51813;40.666;16.602;2023-04-08T09:31:29;3.08;;;1.90;;
65230;SDS011;51813;40.666;16.602;2023-04-08T09:34:08;3.33;;;1.95;;
65230;SDS011;51813;40.666;16.602;2023-04-08T09:36:35;2.60;;;1.88;;
65230;SDS011;51813;40.666;16.602;2023-04-08T09:39:01;3.38;;;2.10;;
65230;SDS011;51813;40.666;16.602;2023-04-08T09:41:27;2.95;;;2.00;;
65230;SDS011;51813;40.666;16.602;2023-04-08T09:43:53;3.17;;;1.90;;
65230;SDS011;51813;40.666;16.602;2023-04-08T09:46:24;4.63;;;2.47;;
65230;SDS011;51813;40.666;16.602;2023-04-08T09:49:39;4.47;;;2.35;;
65230;SDS011;51813;40.666;16.602;2023-04-08T09:51:44;4.00;;;2.90;;
65230;SDS011;51813;40.666;16.602;2023-04-08T09:57:13;4.22;;;2.85;;
65230;SDS011;51813;40.666;16.602;2023-04-08T10:00:27;4.07;;;2.90;;
65230;SDS011;51813;40.666;16.602;2023-04-08T10:02:34;4.10;;;2.70;;
65230;SDS011;51813;40.666;16.602;2023-04-08T10:05:21;4.20;;;2.95;;
65230;SDS011;51813;40.666;16.602;2023-04-08T10:07:49;3.40;;;2.70;;
65230;SDS011;51813;40.666;16.602;2023-04-08T10:10:15;3.65;;;2.85;;
65230;SDS011;51813;40.666;16.602;2023-04-08T10:12:41;3.60;;;2.55;;
65230;SDS011;51813;40.666;16.602;2023-04-08T10:15:26;3.35;;;2.38;;
65230;SDS011;51813;40.666;16.602;2023-04-08T10:23:00;2.97;;;2.15;;
65230;SDS011;51813;40.666;16.602;2023-04-08T10:27:59;4.18;;;2.60;;
65230;SDS011;51813;40.666;16.602;2023-04-08T10:32:54;4.97;;;2.90;;
65230;SDS011;51813;40.666;16.602;2023-04-08T10:35:34;3.88;;;2.72;;
65230;SDS011;51813;40.666;16.602;2023-04-08T10:38:01;6.03;;;3.38;;
65230;SDS011;51813;40.666;16.602;2023-04-08T10:40:27;6.38;;;3.50;;
65230;SDS011;51813;40.666;16.602;2023-04-08T10:42:55;4.70;;;3.10;;
65230;SDS011;51813;40.666;16.602;2023-04-08T10:45:23;5.13;;;3.05;;
65230;SDS011;51813;40.666;16.602;2023-04-08T10:47:49;4.68;;;2.88;;
65230;SDS011;51813;40.666;16.602;2023-04-08T10:50:16;4.68;;;2.88;;
65230;SDS011;51813;40.666;16.602;2023-04-08T10:52:50;4.28;;;2.90;;
65230;SDS011;51813;40.666;16.602;2023-04-08T10:55:23;4.22;;;2.95;;
65230;SDS011;51813;40.666;16.602;2023-04-08T10:57:50;5.47;;;3.00;;
65230;SDS011;51813;40.666;16.602;2023-04-08T11:00:16;5.53;;;2.90;;
65230;SDS011;51813;40.666;16.602;2023-04-08T11:02:43;3.85;;;2.72;;
65230;SDS011;51813;40.666;16.602;2023-04-08T11:05:09;13.10;;;3.58;;
65230;SDS011;51813;40.666;16.602;2023-04-08T11:07:41;5.15;;;3.00;;
65230;SDS011;51813;40.666;16.602;2023-04-08T11:10:09;5.90;;;2.70;;
65230;SDS011;51813;40.666;16.602;2023-04-08T11:12:35;5.20;;;2.97;;
65230;SDS011;51813;40.666;16.602;2023-04-08T11:15:02;5.15;;;2.85;;
65230;SDS011;51813;40.666;16.602;2023-04-08T11:17:29;3.97;;;2.60;;
65230;SDS011;51813;40.666;16.602;2023-04-08T11:19:58;5.15;;;2.70;;
65230;SDS011;51813;40.666;16.602;2023-04-08T11:22:27;3.72;;;2.47;;
65230;SDS011;51813;40.666;16.602;2023-04-08T11:24:54;4.28;;;2.70;;
65230;SDS011;51813;40.666;16.602;2023-04-08T11:27:21;4.38;;;2.65;;
65230;SDS011;51813;40.666;16.602;2023-04-08T11:29:49;3.60;;;2.40;;
65230;SDS011;51813;40.666;16.602;2023-04-08T11:32:16;4.13;;;2.60;;
65230;SDS011;51813;40.666;16.602;2023-04-08T11:34:43;3.63;;;2.35;;
65230;SDS011;51813;40.666;16.602;2023-04-08T11:37:09;4.47;;;2.30;;
65230;SDS011;51813;40.666;16.602;2023-04-08T11:39:39;3.88;;;2.45;;
65230;SDS011;51813;40.666;16.602;2023-04-08T11:42:07;3.28;;;2.30;;
65230;SDS011;51813;40.666;16.602;2023-04-08T11:44:32;3.38;;;2.50;;
65230;SDS011;51813;40.666;16.602;2023-04-08T11:46:58;3.72;;;2.35;;
65230;SDS011;51813;40.666;16.602;2023-04-08T11:49:26;4.32;;;2.78;;
65230;SDS011;51813;40.666;16.602;2023-04-08T11:51:58;3.38;;;2.22;;
65230;SDS011;51813;40.666;16.602;2023-04-08T11:54:30;4.15;;;2.40;;
65230;SDS011;51813;40.666;16.602;2023-04-08T11:56:57;3.20;;;2.25;;
65230;SDS011;51813;40.666;16.602;2023-04-08T11:59:24;3.75;;;2.10;;
65230;SDS011;51813;40.666;16.602;2023-04-08T12:01:50;3.92;;;2.30;;
65230;SDS011;51813;40.666;16.602;2023-04-08T12:04:17;3.38;;;2.30;;
65230;SDS011;51813;40.666;16.602;2023-04-08T12:06:42;3.65;;;2.28;;
65230;SDS011;51813;40.666;16.602;2023-04-08T12:09:11;4.15;;;2.33;;
65230;SDS011;51813;40.666;16.602;2023-04-08T12:11:37;3.70;;;2.30;;
65230;SDS011;51813;40.666;16.602;2023-04-08T12:14:02;3.58;;;2.40;;
65230;SDS011;51813;40.666;16.602;2023-04-08T12:16:28;3.33;;;2.30;;
65230;SDS011;51813;40.666;16.602;2023-04-08T12:18:54;4.20;;;2.15;;
65230;SDS011;51813;40.666;16.602;2023-04-08T12:21:20;3.55;;;2.05;;
65230;SDS011;51813;40.666;16.602;2023-04-08T12:23:45;4.05;;;2.45;;
65230;SDS011;51813;40.666;16.602;2023-04-08T12:26:11;3.30;;;2.30;;
65230;SDS011;51813;40.666;16.602;2023-04-08T12:28:37;3.05;;;2.17;;
65230;SDS011;51813;40.666;16.602;2023-04-08T12:31:03;3.50;;;2.17;;
65230;SDS011;51813;40.666;16.602;2023-04-08T12:33:29;4.22;;;2.63;;
65230;SDS011;51813;40.666;16.602;2023-04-08T12:35:55;3.08;;;2.10;;
65230;SDS011;51813;40.666;16.602;2023-04-08T12:38:23;3.42;;;2.30;;
65230;SDS011;51813;40.666;16.602;2023-04-08T12:40:49;3.25;;;1.98;;
65230;SDS011;51813;40.666;16.602;2023-04-08T12:43:15;3.30;;;2.25;;
65230;SDS011;51813;40.666;16.602;2023-04-08T12:45:40;3.63;;;2.33;;
65230;SDS011;51813;40.666;16.602;2023-04-08T12:48:07;3.30;;;1.98;;
65230;SDS011;51813;40.666;16.602;2023-04-08T12:50:33;3.85;;;2.33;;
65230;SDS011;51813;40.666;16.602;2023-04-08T12:52:58;2.85;;;2.00;;
65230;SDS011;51813;40.666;16.602;2023-04-08T12:55:24;3.30;;;2.20;;
65230;SDS011;51813;40.666;16.602;2023-04-08T12:57:50;3.00;;;2.00;;
65230;SDS011;51813;40.666;16.602;2023-04-08T13:00:17;2.78;;;2.00;;
65230;SDS011;51813;40.666;16.602;2023-04-08T13:02:43;2.90;;;2.10;;
65230;SDS011;51813;40.666;16.602;2023-04-08T13:05:09;3.55;;;2.30;;
65230;SDS011;51813;40.666;16.602;2023-04-08T13:07:35;2.97;;;1.98;;
65230;SDS011;51813;40.666;16.602;2023-04-08T13:10:01;2.80;;;2.00;;
65230;SDS011;51813;40.666;16.602;2023-04-08T13:12:27;3.78;;;2.05;;
65230;SDS011;51813;40.666;16.602;2023-04-08T13:14:54;4.32;;;2.22;;
65230;SDS011;51813;40.666;16.602;2023-04-08T13:17:20;3.28;;;2.22;;
65230;SDS011;51813;40.666;16.602;2023-04-08T13:19:45;3.15;;;2.17;;
65230;SDS011;51813;40.666;16.602;2023-04-08T13:22:14;3.30;;;2.30;;
65230;SDS011;51813;40.666;16.602;2023-04-08T13:24:40;3.33;;;2.25;;
65230;SDS011;51813;40.666;16.602;2023-04-08T13:27:06;3.03;;;2.13;;
65230;SDS011;51813;40.666;16.602;2023-04-08T13:29:32;3.75;;;2.30;;
65230;SDS011;51813;40.666;16.602;2023-04-08T13:31:58;2.67;;;1.85;;
65230;SDS011;51813;40.666;16.602;2023-04-08T13:34:25;3.25;;;2.20;;
65230;SDS011;51813;40.666;16.602;2023-04-08T13:36:51;4.05;;;2.20;;
65230;SDS011;51813;40.666;16.602;2023-04-08T13:39:17;3.50;;;2.25;;
65230;SDS011;51813;40.666;16.602;2023-04-08T13:41:42;2.78;;;1.98;;
65230;SDS011;51813;40.666;16.602;2023-04-08T13:44:08;2.97;;;2.00;;
65230;SDS011;51813;40.666;16.602;2023-04-08T13:46:34;2.92;;;2.10;;
65230;SDS011;51813;40.666;16.602;2023-04-08T13:49:00;3.25;;;2.22;;
65230;SDS011;51813;40.666;16.602;2023-04-08T13:51:27;3.53;;;2.10;;
65230;SDS011;51813;40.666;16.602;2023-04-08T13:53:53;2.90;;;1.90;;
65230;SDS011;51813;40.666;16.602;2023-04-08T13:56:19;3.50;;;2.30;;
65230;SDS011;51813;40.666;16.602;2023-04-08T13:58:45;2.92;;;2.15;;
65230;SDS011;51813;40.666;16.602;2023-04-08T14:01:11;3.30;;;2.20;;
65230;SDS011;51813;40.666;16.602;2023-04-08T14:03:36;3.38;;;2.10;;
65230;SDS011;51813;40.666;16.602;2023-04-08T14:06:02;3.15;;;1.98;;
65230;SDS011;51813;40.666;16.602;2023-04-08T14:08:28;3.15;;;2.10;;
65230;SDS011;51813;40.666;16.602;2023-04-08T14:10:56;2.80;;;2.03;;
65230;SDS011;51813;40.666;16.602;2023-04-08T14:13:22;3.45;;;2.13;;
65230;SDS011;51813;40.666;16.602;2023-04-08T14:15:48;2.95;;;1.90;;
65230;SDS011;51813;40.666;16.602;2023-04-08T14:18:14;3.03;;;1.92;;
65230;SDS011;51813;40.666;16.602;2023-04-08T14:20:42;3.10;;;2.00;;
65230;SDS011;51813;40.666;16.602;2023-04-08T14:23:08;3.55;;;2.55;;
65230;SDS011;51813;40.666;16.602;2023-04-08T14:25:33;2.90;;;2.00;;
65230;SDS011;51813;40.666;16.602;2023-04-08T14:27:59;3.10;;;2.38;;
65230;SDS011;51813;40.666;16.602;2023-04-08T14:30:25;2.72;;;1.88;;
65230;SDS011;51813;40.666;16.602;2023-04-08T14:32:51;2.92;;;2.20;;
65230;SDS011;51813;40.666;16.602;2023-04-08T14:35:17;3.33;;;2.13;;
65230;SDS011;51813;40.666;16.602;2023-04-08T14:37:43;3.17;;;2.30;;
65230;SDS011;51813;40.666;16.602;2023-04-08T14:40:08;2.83;;;1.88;;
65230;SDS011;51813;40.666;16.602;2023-04-08T14:42:35;3.28;;;2.00;;
65230;SDS011;51813;40.666;16.602;2023-04-08T14:45:00;3.05;;;2.10;;
65230;SDS011;51813;40.666;16.602;2023-04-08T14:47:27;2.60;;;1.85;;
65230;SDS011;51813;40.666;16.602;2023-04-08T14:49:53;3.45;;;2.00;;
65230;SDS011;51813;40.666;16.602;2023-04-08T14:52:18;2.58;;;1.80;;
65230;SDS011;51813;40.666;16.602;2023-04-08T14:54:44;2.72;;;1.90;;
65230;SDS011;51813;40.666;16.602;2023-04-08T14:57:10;2.92;;;1.90;;
65230;SDS011;51813;40.666;16.602;2023-04-08T14:59:37;3.10;;;2.20;;